East Wenatchee, Washington
Current Conditions -  °F | °C
As of 5:55 AM on Sunday 21 Dec 2014 (Local Time) from KEAT Reporting Station
Broken Clouds Broken Clouds  
Wind Chill: 38°   Ceiling: 9000
Heat Index: 38°   Visibility: 10mi
Dew Point: 36°   Wind: 3mph
Humidity: 93%   Direction: 170°S
Pressure: 29.66"   Gusts: NA
Location:  47.42°N, 120.29°W
Report Text: KEAT 211355Z AUTO 17003KT 10SM FEW060 BKN090 03/02 A2966 RMK AO2 RAE21 SLP053 P0000 T00330022
Loading
Personal Weather Stations






























Interactive Weather Map New forecast layout! Learn more

10-Day Weather Forecast

Advertisements
Track Severe Weather on mobile